sensor_id;sensor_type;location;lat;lon;timestamp;P1;durP1;ratioP1;P2;durP2;ratioP2
77158;SDS011;66129;45.890;13.714;2023-03-07T00:01:37;15.10;;;9.60;;
77158;SDS011;66129;45.890;13.714;2023-03-07T00:04:03;16.27;;;8.40;;
77158;SDS011;66129;45.890;13.714;2023-03-07T00:06:28;20.60;;;8.73;;
77158;SDS011;66129;45.890;13.714;2023-03-07T00:08:55;18.10;;;9.20;;
77158;SDS011;66129;45.890;13.714;2023-03-07T00:11:22;16.38;;;9.38;;
77158;SDS011;66129;45.890;13.714;2023-03-07T00:13:48;18.55;;;9.60;;
77158;SDS011;66129;45.890;13.714;2023-03-07T00:16:15;14.00;;;8.60;;
77158;SDS011;66129;45.890;13.714;2023-03-07T00:18:42;14.63;;;8.40;;
77158;SDS011;66129;45.890;13.714;2023-03-07T00:21:09;13.13;;;7.57;;
77158;SDS011;66129;45.890;13.714;2023-03-07T00:23:38;14.20;;;7.65;;
77158;SDS011;66129;45.890;13.714;2023-03-07T00:28:38;15.82;;;7.82;;
77158;SDS011;66129;45.890;13.714;2023-03-07T00:31:04;17.92;;;8.23;;
77158;SDS011;66129;45.890;13.714;2023-03-07T00:33:32;16.35;;;8.00;;
77158;SDS011;66129;45.890;13.714;2023-03-07T00:35:59;13.48;;;7.47;;
77158;SDS011;66129;45.890;13.714;2023-03-07T00:38:27;15.40;;;7.43;;
77158;SDS011;66129;45.890;13.714;2023-03-07T00:40:55;13.48;;;7.97;;
77158;SDS011;66129;45.890;13.714;2023-03-07T00:43:24;17.25;;;9.32;;
77158;SDS011;66129;45.890;13.714;2023-03-07T00:45:49;10.35;;;6.68;;
77158;SDS011;66129;45.890;13.714;2023-03-07T00:48:15;14.40;;;8.00;;
77158;SDS011;66129;45.890;13.714;2023-03-07T00:50:42;14.30;;;7.05;;
77158;SDS011;66129;45.890;13.714;2023-03-07T00:53:08;14.30;;;7.75;;
77158;SDS011;66129;45.890;13.714;2023-03-07T00:55:33;14.35;;;7.05;;
77158;SDS011;66129;45.890;13.714;2023-03-07T00:57:59;13.90;;;6.35;;
77158;SDS011;66129;45.890;13.714;2023-03-07T01:00:24;13.45;;;7.38;;
77158;SDS011;66129;45.890;13.714;2023-03-07T01:02:50;11.43;;;6.10;;
77158;SDS011;66129;45.890;13.714;2023-03-07T01:05:16;12.93;;;7.13;;
77158;SDS011;66129;45.890;13.714;2023-03-07T01:07:41;10.20;;;5.82;;
77158;SDS011;66129;45.890;13.714;2023-03-07T01:10:07;15.15;;;6.60;;
77158;SDS011;66129;45.890;13.714;2023-03-07T01:12:33;12.38;;;6.07;;
77158;SDS011;66129;45.890;13.714;2023-03-07T01:14:58;12.43;;;5.82;;
77158;SDS011;66129;45.890;13.714;2023-03-07T01:17:24;12.68;;;6.28;;
77158;SDS011;66129;45.890;13.714;2023-03-07T01:19:49;13.95;;;5.13;;
77158;SDS011;66129;45.890;13.714;2023-03-07T01:22:15;11.80;;;6.70;;
77158;SDS011;66129;45.890;13.714;2023-03-07T01:24:40;13.25;;;7.22;;
77158;SDS011;66129;45.890;13.714;2023-03-07T01:27:06;11.57;;;6.50;;
77158;SDS011;66129;45.890;13.714;2023-03-07T01:29:31;16.20;;;7.57;;
77158;SDS011;66129;45.890;13.714;2023-03-07T01:31:57;12.20;;;7.20;;
77158;SDS011;66129;45.890;13.714;2023-03-07T01:34:22;13.27;;;7.25;;
77158;SDS011;66129;45.890;13.714;2023-03-07T01:36:48;11.98;;;6.85;;
77158;SDS011;66129;45.890;13.714;2023-03-07T01:39:14;10.90;;;6.75;;
77158;SDS011;66129;45.890;13.714;2023-03-07T01:41:41;11.40;;;6.55;;
77158;SDS011;66129;45.890;13.714;2023-03-07T01:47:17;12.40;;;6.72;;
77158;SDS011;66129;45.890;13.714;2023-03-07T01:49:43;13.48;;;6.55;;
77158;SDS011;66129;45.890;13.714;2023-03-07T01:52:11;12.30;;;6.88;;
77158;SDS011;66129;45.890;13.714;2023-03-07T01:54:42;11.18;;;6.20;;
77158;SDS011;66129;45.890;13.714;2023-03-07T01:57:13;11.88;;;7.07;;
77158;SDS011;66129;45.890;13.714;2023-03-07T01:59:42;13.48;;;6.00;;
77158;SDS011;66129;45.890;13.714;2023-03-07T02:02:12;12.60;;;6.70;;
77158;SDS011;66129;45.890;13.714;2023-03-07T02:07:29;12.40;;;6.43;;
77158;SDS011;66129;45.890;13.714;2023-03-07T02:09:57;9.57;;;5.18;;
77158;SDS011;66129;45.890;13.714;2023-03-07T02:15:18;13.63;;;6.43;;
77158;SDS011;66129;45.890;13.714;2023-03-07T02:17:44;8.88;;;5.82;;
77158;SDS011;66129;45.890;13.714;2023-03-07T02:28:10;9.13;;;5.55;;
77158;SDS011;66129;45.890;13.714;2023-03-07T02:30:56;9.40;;;5.93;;
77158;SDS011;66129;45.890;13.714;2023-03-07T02:33:23;11.13;;;6.43;;
77158;SDS011;66129;45.890;13.714;2023-03-07T02:35:52;11.20;;;6.75;;
77158;SDS011;66129;45.890;13.714;2023-03-07T02:38:21;11.27;;;5.72;;
77158;SDS011;66129;45.890;13.714;2023-03-07T02:40:48;11.93;;;6.30;;
77158;SDS011;66129;45.890;13.714;2023-03-07T02:43:14;11.82;;;5.80;;
77158;SDS011;66129;45.890;13.714;2023-03-07T02:45:40;12.15;;;5.38;;
77158;SDS011;66129;45.890;13.714;2023-03-07T02:48:05;15.73;;;7.35;;
77158;SDS011;66129;45.890;13.714;2023-03-07T02:50:31;11.13;;;5.97;;
77158;SDS011;66129;45.890;13.714;2023-03-07T02:52:56;14.23;;;6.68;;
77158;SDS011;66129;45.890;13.714;2023-03-07T02:55:22;14.05;;;7.13;;
77158;SDS011;66129;45.890;13.714;2023-03-07T02:57:47;9.98;;;6.20;;
77158;SDS011;66129;45.890;13.714;2023-03-07T03:00:13;11.45;;;6.05;;
77158;SDS011;66129;45.890;13.714;2023-03-07T03:02:39;11.35;;;5.68;;
77158;SDS011;66129;45.890;13.714;2023-03-07T03:05:05;10.32;;;6.43;;
77158;SDS011;66129;45.890;13.714;2023-03-07T03:07:31;11.55;;;6.18;;
77158;SDS011;66129;45.890;13.714;2023-03-07T03:09:56;12.27;;;6.35;;
77158;SDS011;66129;45.890;13.714;2023-03-07T03:12:22;16.35;;;6.43;;
77158;SDS011;66129;45.890;13.714;2023-03-07T03:14:47;10.38;;;6.32;;
77158;SDS011;66129;45.890;13.714;2023-03-07T03:17:13;10.00;;;6.45;;
77158;SDS011;66129;45.890;13.714;2023-03-07T03:19:38;9.70;;;5.97;;
77158;SDS011;66129;45.890;13.714;2023-03-07T03:22:04;12.57;;;5.80;;
77158;SDS011;66129;45.890;13.714;2023-03-07T03:24:29;10.07;;;5.82;;
77158;SDS011;66129;45.890;13.714;2023-03-07T03:26:55;9.27;;;6.47;;
77158;SDS011;66129;45.890;13.714;2023-03-07T03:29:24;11.30;;;6.38;;
77158;SDS011;66129;45.890;13.714;2023-03-07T03:31:50;15.18;;;6.90;;
77158;SDS011;66129;45.890;13.714;2023-03-07T03:34:16;11.15;;;6.30;;
77158;SDS011;66129;45.890;13.714;2023-03-07T03:36:41;14.13;;;6.10;;
77158;SDS011;66129;45.890;13.714;2023-03-07T03:39:07;9.95;;;5.75;;
77158;SDS011;66129;45.890;13.714;2023-03-07T03:41:35;8.07;;;5.47;;
77158;SDS011;66129;45.890;13.714;2023-03-07T03:44:02;14.50;;;7.05;;
77158;SDS011;66129;45.890;13.714;2023-03-07T03:46:28;9.50;;;5.45;;
77158;SDS011;66129;45.890;13.714;2023-03-07T03:48:54;10.82;;;5.47;;
77158;SDS011;66129;45.890;13.714;2023-03-07T03:51:20;11.07;;;6.32;;
77158;SDS011;66129;45.890;13.714;2023-03-07T03:53:47;15.50;;;6.55;;
77158;SDS011;66129;45.890;13.714;2023-03-07T03:56:17;10.50;;;6.10;;
77158;SDS011;66129;45.890;13.714;2023-03-07T03:58:49;9.55;;;5.38;;
77158;SDS011;66129;45.890;13.714;2023-03-07T04:01:16;13.95;;;6.13;;
77158;SDS011;66129;45.890;13.714;2023-03-07T04:03:43;11.25;;;5.97;;
77158;SDS011;66129;45.890;13.714;2023-03-07T04:06:29;9.98;;;5.57;;
77158;SDS011;66129;45.890;13.714;2023-03-07T04:08:56;9.45;;;6.13;;
77158;SDS011;66129;45.890;13.714;2023-03-07T04:11:23;11.93;;;6.53;;
77158;SDS011;66129;45.890;13.714;2023-03-07T04:13:49;11.48;;;6.65;;
77158;SDS011;66129;45.890;13.714;2023-03-07T04:16:16;13.27;;;5.82;;
77158;SDS011;66129;45.890;13.714;2023-03-07T04:18:42;9.98;;;6.63;;
77158;SDS011;66129;45.890;13.714;2023-03-07T04:21:07;14.43;;;6.07;;
77158;SDS011;66129;45.890;13.714;2023-03-07T04:23:35;13.73;;;5.95;;
77158;SDS011;66129;45.890;13.714;2023-03-07T04:26:01;10.57;;;5.80;;
77158;SDS011;66129;45.890;13.714;2023-03-07T04:28:29;10.80;;;6.35;;
77158;SDS011;66129;45.890;13.714;2023-03-07T04:31:10;9.65;;;5.45;;
77158;SDS011;66129;45.890;13.714;2023-03-07T04:33:36;11.15;;;5.47;;
77158;SDS011;66129;45.890;13.714;2023-03-07T04:36:02;12.70;;;6.53;;
77158;SDS011;66129;45.890;13.714;2023-03-07T04:38:28;11.15;;;6.20;;
77158;SDS011;66129;45.890;13.714;2023-03-07T04:40:53;11.93;;;6.45;;
77158;SDS011;66129;45.890;13.714;2023-03-07T04:43:19;8.95;;;6.07;;
77158;SDS011;66129;45.890;13.714;2023-03-07T04:45:45;12.38;;;6.50;;
77158;SDS011;66129;45.890;13.714;2023-03-07T04:48:11;18.05;;;7.38;;
77158;SDS011;66129;45.890;13.714;2023-03-07T04:50:36;11.38;;;6.32;;
77158;SDS011;66129;45.890;13.714;2023-03-07T04:53:02;11.55;;;6.25;;
77158;SDS011;66129;45.890;13.714;2023-03-07T04:55:27;11.35;;;6.63;;
77158;SDS011;66129;45.890;13.714;2023-03-07T04:57:53;10.43;;;6.75;;
77158;SDS011;66129;45.890;13.714;2023-03-07T05:00:19;11.75;;;7.28;;
77158;SDS011;66129;45.890;13.714;2023-03-07T05:02:44;10.65;;;5.90;;
77158;SDS011;66129;45.890;13.714;2023-03-07T05:05:10;12.95;;;7.28;;
77158;SDS011;66129;45.890;13.714;2023-03-07T05:07:36;14.50;;;7.78;;
77158;SDS011;66129;45.890;13.714;2023-03-07T05:10:02;15.77;;;7.82;;
77158;SDS011;66129;45.890;13.714;2023-03-07T05:12:27;12.98;;;7.05;;
77158;SDS011;66129;45.890;13.714;2023-03-07T05:14:53;13.15;;;7.97;;
77158;SDS011;66129;45.890;13.714;2023-03-07T05:17:18;15.98;;;8.32;;
77158;SDS011;66129;45.890;13.714;2023-03-07T05:19:44;15.05;;;7.03;;
77158;SDS011;66129;45.890;13.714;2023-03-07T05:22:10;14.95;;;7.60;;
77158;SDS011;66129;45.890;13.714;2023-03-07T05:24:35;15.27;;;9.70;;
77158;SDS011;66129;45.890;13.714;2023-03-07T05:27:00;18.50;;;14.25;;
77158;SDS011;66129;45.890;13.714;2023-03-07T05:29:26;22.17;;;16.17;;
77158;SDS011;66129;45.890;13.714;2023-03-07T05:31:52;17.95;;;11.88;;
77158;SDS011;66129;45.890;13.714;2023-03-07T05:34:18;16.77;;;10.18;;
77158;SDS011;66129;45.890;13.714;2023-03-07T05:36:43;21.77;;;11.93;;
77158;SDS011;66129;45.890;13.714;2023-03-07T05:39:09;14.98;;;9.20;;
77158;SDS011;66129;45.890;13.714;2023-03-07T05:41:35;19.50;;;10.52;;
77158;SDS011;66129;45.890;13.714;2023-03-07T05:44:00;14.50;;;9.18;;
77158;SDS011;66129;45.890;13.714;2023-03-07T05:46:27;16.73;;;9.05;;
77158;SDS011;66129;45.890;13.714;2023-03-07T05:48:53;19.23;;;8.75;;
77158;SDS011;66129;45.890;13.714;2023-03-07T05:51:19;17.73;;;8.07;;
77158;SDS011;66129;45.890;13.714;2023-03-07T05:53:45;11.80;;;6.88;;
77158;SDS011;66129;45.890;13.714;2023-03-07T05:56:10;17.60;;;8.52;;
77158;SDS011;66129;45.890;13.714;2023-03-07T05:58:37;14.10;;;8.00;;
77158;SDS011;66129;45.890;13.714;2023-03-07T06:01:02;22.05;;;11.13;;
77158;SDS011;66129;45.890;13.714;2023-03-07T06:03:44;44.40;;;18.55;;
77158;SDS011;66129;45.890;13.714;2023-03-07T06:06:13;25.40;;;13.35;;
77158;SDS011;66129;45.890;13.714;2023-03-07T06:08:38;19.45;;;12.90;;
77158;SDS011;66129;45.890;13.714;2023-03-07T06:11:04;17.50;;;11.70;;
77158;SDS011;66129;45.890;13.714;2023-03-07T06:13:32;13.40;;;6.47;;
77158;SDS011;66129;45.890;13.714;2023-03-07T06:15:58;11.10;;;6.55;;
77158;SDS011;66129;45.890;13.714;2023-03-07T06:18:24;26.00;;;9.15;;
77158;SDS011;66129;45.890;13.714;2023-03-07T06:21:00;13.25;;;6.97;;
77158;SDS011;66129;45.890;13.714;2023-03-07T06:23:28;10.27;;;6.05;;
77158;SDS011;66129;45.890;13.714;2023-03-07T06:25:57;13.55;;;7.40;;
77158;SDS011;66129;45.890;13.714;2023-03-07T06:28:22;11.25;;;7.03;;
77158;SDS011;66129;45.890;13.714;2023-03-07T06:30:48;13.48;;;7.53;;
77158;SDS011;66129;45.890;13.714;2023-03-07T06:33:14;26.20;;;13.57;;
77158;SDS011;66129;45.890;13.714;2023-03-07T06:35:40;30.60;;;14.13;;
77158;SDS011;66129;45.890;13.714;2023-03-07T06:38:10;18.92;;;10.30;;
77158;SDS011;66129;45.890;13.714;2023-03-07T06:40:38;24.70;;;10.68;;
77158;SDS011;66129;45.890;13.714;2023-03-07T06:43:04;18.17;;;9.50;;
77158;SDS011;66129;45.890;13.714;2023-03-07T06:45:29;18.60;;;8.48;;
77158;SDS011;66129;45.890;13.714;2023-03-07T06:47:55;13.70;;;7.97;;
77158;SDS011;66129;45.890;13.714;2023-03-07T06:50:20;10.38;;;5.78;;
77158;SDS011;66129;45.890;13.714;2023-03-07T06:52:46;12.77;;;6.15;;
77158;SDS011;66129;45.890;13.714;2023-03-07T06:55:13;10.25;;;6.35;;
77158;SDS011;66129;45.890;13.714;2023-03-07T06:57:39;12.48;;;6.65;;
77158;SDS011;66129;45.890;13.714;2023-03-07T07:00:05;13.48;;;6.68;;
77158;SDS011;66129;45.890;13.714;2023-03-07T07:02:31;15.18;;;7.15;;
77158;SDS011;66129;45.890;13.714;2023-03-07T07:04:57;12.23;;;7.00;;
77158;SDS011;66129;45.890;13.714;2023-03-07T07:07:23;16.92;;;8.18;;
77158;SDS011;66129;45.890;13.714;2023-03-07T07:09:49;12.90;;;6.78;;
77158;SDS011;66129;45.890;13.714;2023-03-07T07:12:15;10.38;;;6.43;;
77158;SDS011;66129;45.890;13.714;2023-03-07T07:14:40;12.80;;;6.97;;
77158;SDS011;66129;45.890;13.714;2023-03-07T07:17:09;13.18;;;7.50;;
77158;SDS011;66129;45.890;13.714;2023-03-07T07:19:35;14.50;;;7.38;;
77158;SDS011;66129;45.890;13.714;2023-03-07T07:22:01;10.32;;;6.68;;
77158;SDS011;66129;45.890;13.714;2023-03-07T07:24:26;11.95;;;6.70;;
77158;SDS011;66129;45.890;13.714;2023-03-07T07:26:52;14.05;;;7.35;;
77158;SDS011;66129;45.890;13.714;2023-03-07T07:29:18;13.23;;;7.13;;
77158;SDS011;66129;45.890;13.714;2023-03-07T07:31:44;14.82;;;7.53;;
77158;SDS011;66129;45.890;13.714;2023-03-07T07:34:10;13.63;;;7.65;;
77158;SDS011;66129;45.890;13.714;2023-03-07T07:36:36;17.15;;;7.93;;
77158;SDS011;66129;45.890;13.714;2023-03-07T07:39:05;14.65;;;6.95;;
77158;SDS011;66129;45.890;13.714;2023-03-07T07:41:32;19.00;;;8.35;;
77158;SDS011;66129;45.890;13.714;2023-03-07T07:43:58;16.17;;;7.70;;
77158;SDS011;66129;45.890;13.714;2023-03-07T07:46:24;11.68;;;6.95;;
77158;SDS011;66129;45.890;13.714;2023-03-07T07:48:52;13.95;;;7.65;;
77158;SDS011;66129;45.890;13.714;2023-03-07T07:51:19;12.63;;;7.85;;
77158;SDS011;66129;45.890;13.714;2023-03-07T07:53:45;10.93;;;5.25;;
77158;SDS011;66129;45.890;13.714;2023-03-07T07:56:10;8.57;;;5.10;;
77158;SDS011;66129;45.890;13.714;2023-03-07T07:58:36;10.07;;;5.03;;
77158;SDS011;66129;45.890;13.714;2023-03-07T08:01:15;8.98;;;5.25;;
77158;SDS011;66129;45.890;13.714;2023-03-07T08:03:46;10.77;;;4.95;;
77158;SDS011;66129;45.890;13.714;2023-03-07T08:06:16;8.73;;;4.85;;
77158;SDS011;66129;45.890;13.714;2023-03-07T08:08:43;11.82;;;5.10;;
77158;SDS011;66129;45.890;13.714;2023-03-07T08:11:08;11.25;;;4.95;;
77158;SDS011;66129;45.890;13.714;2023-03-07T08:13:34;9.75;;;6.13;;
77158;SDS011;66129;45.890;13.714;2023-03-07T08:16:06;12.13;;;5.80;;
77158;SDS011;66129;45.890;13.714;2023-03-07T08:18:42;9.77;;;4.93;;
77158;SDS011;66129;45.890;13.714;2023-03-07T08:21:12;32.30;;;18.13;;
77158;SDS011;66129;45.890;13.714;2023-03-07T08:23:38;16.23;;;10.77;;
77158;SDS011;66129;45.890;13.714;2023-03-07T08:26:04;8.30;;;5.55;;
77158;SDS011;66129;45.890;13.714;2023-03-07T08:28:33;7.68;;;4.60;;
77158;SDS011;66129;45.890;13.714;2023-03-07T08:31:04;10.98;;;5.07;;
77158;SDS011;66129;45.890;13.714;2023-03-07T08:33:31;10.15;;;5.00;;
77158;SDS011;66129;45.890;13.714;2023-03-07T08:35:57;9.00;;;5.13;;
77158;SDS011;66129;45.890;13.714;2023-03-07T08:38:24;8.55;;;5.43;;
77158;SDS011;66129;45.890;13.714;2023-03-07T08:40:50;10.50;;;5.93;;
77158;SDS011;66129;45.890;13.714;2023-03-07T08:43:16;10.85;;;4.78;;
77158;SDS011;66129;45.890;13.714;2023-03-07T08:45:44;10.68;;;4.85;;
77158;SDS011;66129;45.890;13.714;2023-03-07T08:48:09;11.63;;;4.90;;
77158;SDS011;66129;45.890;13.714;2023-03-07T08:50:35;10.05;;;5.20;;
77158;SDS011;66129;45.890;13.714;2023-03-07T08:53:03;8.70;;;5.70;;
77158;SDS011;66129;45.890;13.714;2023-03-07T08:55:28;15.20;;;7.38;;
77158;SDS011;66129;45.890;13.714;2023-03-07T08:57:54;11.70;;;6.90;;
77158;SDS011;66129;45.890;13.714;2023-03-07T09:00:22;13.52;;;6.75;;
77158;SDS011;66129;45.890;13.714;2023-03-07T09:02:49;17.13;;;6.45;;
77158;SDS011;66129;45.890;13.714;2023-03-07T09:05:14;12.38;;;7.18;;
77158;SDS011;66129;45.890;13.714;2023-03-07T09:07:40;11.32;;;5.40;;
77158;SDS011;66129;45.890;13.714;2023-03-07T09:10:06;12.68;;;6.80;;
77158;SDS011;66129;45.890;13.714;2023-03-07T09:12:32;15.13;;;6.93;;
77158;SDS011;66129;45.890;13.714;2023-03-07T09:15:00;12.10;;;6.15;;
77158;SDS011;66129;45.890;13.714;2023-03-07T09:17:26;9.90;;;5.60;;
77158;SDS011;66129;45.890;13.714;2023-03-07T09:19:51;13.10;;;6.47;;
77158;SDS011;66129;45.890;13.714;2023-03-07T09:22:17;14.43;;;8.40;;
77158;SDS011;66129;45.890;13.714;2023-03-07T09:24:42;13.50;;;8.48;;
77158;SDS011;66129;45.890;13.714;2023-03-07T09:27:08;17.48;;;8.45;;
77158;SDS011;66129;45.890;13.714;2023-03-07T09:29:35;16.55;;;8.30;;
77158;SDS011;66129;45.890;13.714;2023-03-07T09:32:01;20.48;;;7.57;;
77158;SDS011;66129;45.890;13.714;2023-03-07T09:34:36;10.27;;;6.13;;
77158;SDS011;66129;45.890;13.714;2023-03-07T09:37:02;18.10;;;8.70;;
77158;SDS011;66129;45.890;13.714;2023-03-07T09:39:30;13.55;;;7.45;;
77158;SDS011;66129;45.890;13.714;2023-03-07T09:41:58;16.63;;;9.05;;
77158;SDS011;66129;45.890;13.714;2023-03-07T09:44:50;19.75;;;10.68;;
77158;SDS011;66129;45.890;13.714;2023-03-07T09:47:55;24.63;;;9.65;;
77158;SDS011;66129;45.890;13.714;2023-03-07T09:56:46;25.50;;;13.30;;
77158;SDS011;66129;45.890;13.714;2023-03-07T10:01:34;25.98;;;14.05;;
77158;SDS011;66129;45.890;13.714;2023-03-07T10:04:02;28.40;;;14.57;;
77158;SDS011;66129;45.890;13.714;2023-03-07T10:06:36;29.15;;;15.55;;
77158;SDS011;66129;45.890;13.714;2023-03-07T10:09:09;25.40;;;14.55;;
77158;SDS011;66129;45.890;13.714;2023-03-07T10:11:43;27.27;;;15.27;;
77158;SDS011;66129;45.890;13.714;2023-03-07T10:19:35;35.58;;;17.23;;
77158;SDS011;66129;45.890;13.714;2023-03-07T10:22:38;31.92;;;16.92;;
77158;SDS011;66129;45.890;13.714;2023-03-07T10:25:35;33.45;;;17.88;;
77158;SDS011;66129;45.890;13.714;2023-03-07T10:28:31;31.77;;;16.38;;
77158;SDS011;66129;45.890;13.714;2023-03-07T10:31:39;29.05;;;16.45;;
77158;SDS011;66129;45.890;13.714;2023-03-07T10:34:00;33.65;;;16.27;;
77158;SDS011;66129;45.890;13.714;2023-03-07T10:36:41;29.20;;;16.13;;
77158;SDS011;66129;45.890;13.714;2023-03-07T10:39:25;28.70;;;15.88;;
77158;SDS011;66129;45.890;13.714;2023-03-07T10:41:56;26.08;;;12.52;;
77158;SDS011;66129;45.890;13.714;2023-03-07T10:44:21;27.50;;;14.60;;
77158;SDS011;66129;45.890;13.714;2023-03-07T10:46:53;26.40;;;14.25;;
77158;SDS011;66129;45.890;13.714;2023-03-07T10:49:38;26.00;;;14.85;;
77158;SDS011;66129;45.890;13.714;2023-03-07T10:54:36;27.80;;;13.30;;
77158;SDS011;66129;45.890;13.714;2023-03-07T10:57:06;24.80;;;13.63;;
77158;SDS011;66129;45.890;13.714;2023-03-07T10:59:43;28.05;;;12.98;;
77158;SDS011;66129;45.890;13.714;2023-03-07T11:04:53;20.70;;;12.50;;
77158;SDS011;66129;45.890;13.714;2023-03-07T11:07:23;19.98;;;12.98;;
77158;SDS011;66129;45.890;13.714;2023-03-07T11:09:52;23.08;;;13.30;;
77158;SDS011;66129;45.890;13.714;2023-03-07T11:12:19;22.85;;;13.48;;
77158;SDS011;66129;45.890;13.714;2023-03-07T11:14:49;24.75;;;13.95;;
77158;SDS011;66129;45.890;13.714;2023-03-07T11:17:20;25.00;;;11.18;;
77158;SDS011;66129;45.890;13.714;2023-03-07T11:19:57;28.85;;;13.60;;
77158;SDS011;66129;45.890;13.714;2023-03-07T11:22:24;26.67;;;14.77;;
77158;SDS011;66129;45.890;13.714;2023-03-07T11:24:59;33.88;;;18.63;;
77158;SDS011;66129;45.890;13.714;2023-03-07T11:27:37;35.95;;;18.33;;
77158;SDS011;66129;45.890;13.714;2023-03-07T11:32:39;38.72;;;19.27;;
77158;SDS011;66129;45.890;13.714;2023-03-07T11:35:13;36.83;;;19.40;;
77158;SDS011;66129;45.890;13.714;2023-03-07T11:40:23;40.03;;;18.90;;
77158;SDS011;66129;45.890;13.714;2023-03-07T11:45:55;35.38;;;19.17;;
77158;SDS011;66129;45.890;13.714;2023-03-07T11:54:26;27.13;;;14.80;;
77158;SDS011;66129;45.890;13.714;2023-03-07T11:56:54;19.35;;;10.55;;
77158;SDS011;66129;45.890;13.714;2023-03-07T11:59:41;18.13;;;10.02;;
77158;SDS011;66129;45.890;13.714;2023-03-07T12:02:26;20.15;;;9.98;;
77158;SDS011;66129;45.890;13.714;2023-03-07T12:24:23;14.57;;;8.05;;
77158;SDS011;66129;45.890;13.714;2023-03-07T12:26:56;17.65;;;10.55;;
77158;SDS011;66129;45.890;13.714;2023-03-07T12:31:52;13.48;;;6.95;;
77158;SDS011;66129;45.890;13.714;2023-03-07T12:36:55;13.40;;;7.10;;
77158;SDS011;66129;45.890;13.714;2023-03-07T12:40:28;11.55;;;5.97;;
77158;SDS011;66129;45.890;13.714;2023-03-07T12:52:47;11.18;;;5.90;;
77158;SDS011;66129;45.890;13.714;2023-03-07T13:00:57;12.43;;;6.13;;
77158;SDS011;66129;45.890;13.714;2023-03-07T13:06:19;11.57;;;5.05;;
77158;SDS011;66129;45.890;13.714;2023-03-07T13:08:47;10.88;;;4.57;;
77158;SDS011;66129;45.890;13.714;2023-03-07T13:11:19;10.35;;;5.07;;
77158;SDS011;66129;45.890;13.714;2023-03-07T13:13:51;13.35;;;5.18;;
77158;SDS011;66129;45.890;13.714;2023-03-07T13:21:57;11.55;;;5.00;;
77158;SDS011;66129;45.890;13.714;2023-03-07T13:24:33;8.23;;;4.80;;
77158;SDS011;66129;45.890;13.714;2023-03-07T13:27:03;8.50;;;4.53;;
77158;SDS011;66129;45.890;13.714;2023-03-07T13:35:58;11.07;;;5.18;;
77158;SDS011;66129;45.890;13.714;2023-03-07T13:40:50;10.05;;;5.07;;
77158;SDS011;66129;45.890;13.714;2023-03-07T13:55:58;9.82;;;3.97;;
77158;SDS011;66129;45.890;13.714;2023-03-07T13:58:30;8.10;;;4.82;;
77158;SDS011;66129;45.890;13.714;2023-03-07T14:00:59;7.13;;;4.40;;
77158;SDS011;66129;45.890;13.714;2023-03-07T14:06:39;8.18;;;3.80;;
77158;SDS011;66129;45.890;13.714;2023-03-07T14:09:13;9.23;;;3.70;;
77158;SDS011;66129;45.890;13.714;2023-03-07T14:25:25;10.07;;;4.18;;
77158;SDS011;66129;45.890;13.714;2023-03-07T14:27:56;9.77;;;3.35;;
77158;SDS011;66129;45.890;13.714;2023-03-07T14:30:25;10.27;;;3.65;;
77158;SDS011;66129;45.890;13.714;2023-03-07T14:32:56;10.13;;;4.07;;
77158;SDS011;66129;45.890;13.714;2023-03-07T14:38:14;9.95;;;3.47;;
77158;SDS011;66129;45.890;13.714;2023-03-07T14:51:56;7.63;;;3.33;;
77158;SDS011;66129;45.890;13.714;2023-03-07T14:54:22;9.02;;;3.42;;
77158;SDS011;66129;45.890;13.714;2023-03-07T14:56:56;8.10;;;4.78;;
77158;SDS011;66129;45.890;13.714;2023-03-07T14:59:23;7.18;;;3.22;;
77158;SDS011;66129;45.890;13.714;2023-03-07T15:01:49;8.18;;;3.47;;
77158;SDS011;66129;45.890;13.714;2023-03-07T15:04:25;7.78;;;3.38;;
77158;SDS011;66129;45.890;13.714;2023-03-07T15:06:54;8.85;;;3.60;;
77158;SDS011;66129;45.890;13.714;2023-03-07T15:09:24;12.27;;;3.80;;
77158;SDS011;66129;45.890;13.714;2023-03-07T15:11:58;5.85;;;3.67;;
77158;SDS011;66129;45.890;13.714;2023-03-07T15:14:32;9.27;;;3.38;;
77158;SDS011;66129;45.890;13.714;2023-03-07T15:17:05;6.80;;;3.65;;
77158;SDS011;66129;45.890;13.714;2023-03-07T15:19:43;5.50;;;2.97;;
77158;SDS011;66129;45.890;13.714;2023-03-07T15:22:25;7.57;;;3.47;;
77158;SDS011;66129;45.890;13.714;2023-03-07T15:24:53;8.35;;;3.90;;
77158;SDS011;66129;45.890;13.714;2023-03-07T15:27:24;6.40;;;3.00;;
77158;SDS011;66129;45.890;13.714;2023-03-07T15:29:52;7.35;;;3.80;;
77158;SDS011;66129;45.890;13.714;2023-03-07T15:32:38;11.57;;;3.63;;
77158;SDS011;66129;45.890;13.714;2023-03-07T15:37:30;11.48;;;3.92;;
77158;SDS011;66129;45.890;13.714;2023-03-07T15:42:47;13.73;;;5.47;;
77158;SDS011;66129;45.890;13.714;2023-03-07T15:45:30;13.73;;;7.40;;
77158;SDS011;66129;45.890;13.714;2023-03-07T15:48:01;10.82;;;7.03;;
77158;SDS011;66129;45.890;13.714;2023-03-07T15:50:34;7.32;;;4.03;;
77158;SDS011;66129;45.890;13.714;2023-03-07T15:53:23;13.07;;;6.20;;
77158;SDS011;66129;45.890;13.714;2023-03-07T15:55:57;11.57;;;5.35;;
77158;SDS011;66129;45.890;13.714;2023-03-07T15:58:25;12.80;;;3.80;;
77158;SDS011;66129;45.890;13.714;2023-03-07T16:01:05;9.82;;;3.55;;
77158;SDS011;66129;45.890;13.714;2023-03-07T16:03:51;18.27;;;4.75;;
77158;SDS011;66129;45.890;13.714;2023-03-07T16:09:06;12.15;;;5.07;;
77158;SDS011;66129;45.890;13.714;2023-03-07T16:11:42;8.23;;;4.22;;
77158;SDS011;66129;45.890;13.714;2023-03-07T16:14:21;11.05;;;4.32;;
77158;SDS011;66129;45.890;13.714;2023-03-07T16:16:52;15.93;;;6.88;;
77158;SDS011;66129;45.890;13.714;2023-03-07T16:19:25;10.50;;;6.03;;
77158;SDS011;66129;45.890;13.714;2023-03-07T16:21:51;6.50;;;3.42;;
77158;SDS011;66129;45.890;13.714;2023-03-07T16:24:17;9.57;;;4.22;;
77158;SDS011;66129;45.890;13.714;2023-03-07T16:26:43;8.73;;;3.88;;
77158;SDS011;66129;45.890;13.714;2023-03-07T16:29:14;12.20;;;4.25;;
77158;SDS011;66129;45.890;13.714;2023-03-07T16:31:41;9.52;;;3.95;;
77158;SDS011;66129;45.890;13.714;2023-03-07T16:34:14;14.48;;;5.32;;
77158;SDS011;66129;45.890;13.714;2023-03-07T16:36:48;12.25;;;6.30;;
77158;SDS011;66129;45.890;13.714;2023-03-07T16:39:14;16.33;;;6.05;;
77158;SDS011;66129;45.890;13.714;2023-03-07T16:41:43;13.15;;;6.55;;
77158;SDS011;66129;45.890;13.714;2023-03-07T16:51:52;21.58;;;8.80;;
77158;SDS011;66129;45.890;13.714;2023-03-07T16:54:21;19.05;;;5.93;;
77158;SDS011;66129;45.890;13.714;2023-03-07T16:56:52;18.85;;;7.22;;
77158;SDS011;66129;45.890;13.714;2023-03-07T16:59:28;22.35;;;9.63;;
77158;SDS011;66129;45.890;13.714;2023-03-07T17:02:18;20.85;;;9.90;;
77158;SDS011;66129;45.890;13.714;2023-03-07T17:04:45;12.38;;;5.70;;
77158;SDS011;66129;45.890;13.714;2023-03-07T17:07:17;11.88;;;4.78;;
77158;SDS011;66129;45.890;13.714;2023-03-07T17:09:45;19.05;;;9.80;;
77158;SDS011;66129;45.890;13.714;2023-03-07T17:12:11;19.83;;;10.98;;
77158;SDS011;66129;45.890;13.714;2023-03-07T17:14:46;30.95;;;15.27;;
77158;SDS011;66129;45.890;13.714;2023-03-07T17:17:34;21.55;;;9.38;;
77158;SDS011;66129;45.890;13.714;2023-03-07T17:20:06;16.05;;;6.32;;
77158;SDS011;66129;45.890;13.714;2023-03-07T17:22:33;11.18;;;5.97;;